Thunder radar more information blitzortung!


Radar de pluja more information rain snow radar


Visita la nostra xarxa de llocs de meteo:

Template documentation
and downloads

And another site



No particular awareness of the weather is required.    There are no Weather-warnings

Pagina Historial Weather Underground text

Diari Resum Octubre 28, 2017 Unitats:  Tant    Imperial   Mètric
« Previous Dia
SegĂźent Dia »
Diari Setmana Mensual Anual Personalitzada
  Maxima: Minima: Media:
Temperatura: 73.2 °F /  22.9 °C 53.4 °F /  11.9 °C 63.5 °F /  17.5 °C
Punt de rosada: 57.6 °F /  14.2 °C 47.1 °F /  8.4 °C 51.3 °F /  10.7 °C
Humitat: 87 % 50 % 65 %
Wind Speed: 8.1 mph /  13.0 km/h - 2.9 mph /  4.6 km/h
RĂ fegues de vent: 8.1 mph /  13.0 km/h - -
Vent:- - SSE
Pression baro: 30.3 in /  1026.0 hPa 30.2 in /  1020.9 hPa -
Precipitacions: 0 in /  0.0 mm    
Historical Graphs
 
 
Dades de taula per Octubre 28, 2017
Temps Temperatura Punt de rosada Pression baro Vent Wind Speed RĂ fegues de vent Humitat Rainfall Rate (Hourly)
00:00 56.8 °F /  13.8 °C 49.6 °F /  9.8 °C 30.2 in /  1023.9 hPa Calm   2 mph /  3.2 km/h 77 % 0 in /  0.0 mm
00:03 61.9 °F /  16.6 °C 57.4 °F /  14.1 °C 30.2 in /  1023.9 hPa Calm     85 % 0 in /  0.0 mm
00:08 61.7 °F /  16.5 °C 57 °F /  13.9 °C 30.2 in /  1023.9 hPa ESE 1.6 mph /  2.6 km/h 1.6 mph /  2.6 km/h 85 % 0 in /  0.0 mm
00:10 56.7 °F /  13.7 °C 49.5 °F /  9.7 °C 30.2 in /  1023.9 hPa WNW 1 mph /  1.6 km/h 1 mph /  1.6 km/h 77 % 0 in /  0.0 mm
00:13 61.5 °F /  16.4 °C 57 °F /  13.9 °C 30.2 in /  1023.9 hPa NE 1.6 mph /  2.6 km/h 1.6 mph /  2.6 km/h 85 % 0 in /  0.0 mm
00:18 61.3 °F /  16.3 °C 56.8 °F /  13.8 °C 30.2 in /  1023.9 hPa ENE 1.6 mph /  2.6 km/h 1.6 mph /  2.6 km/h 85 % 0 in /  0.0 mm
00:20 56.3 °F /  13.5 °C 49.5 °F /  9.7 °C 30.2 in /  1023.9 hPa NW 1 mph /  1.6 km/h 2 mph /  3.2 km/h 78 % 0 in /  0.0 mm
00:23 61.3 °F /  16.3 °C 57 °F /  13.9 °C 30.2 in /  1023.9 hPa NE 1.2 mph /  1.9 km/h   86 % 0 in /  0.0 mm
00:28 61.3 °F /  16.3 °C 56.8 °F /  13.8 °C 30.2 in /  1023.9 hPa WSW 2.3 mph /  3.7 km/h 2.3 mph /  3.7 km/h 85 % 0 in /  0.0 mm
00:30 56.3 °F /  13.5 °C 49.3 °F /  9.6 °C 30.2 in /  1023.9 hPa NW 2 mph /  3.2 km/h 3 mph /  4.8 km/h 77 % 0 in /  0.0 mm
00:33 61.3 °F /  16.3 °C 57 °F /  13.9 °C 30.2 in /  1023.9 hPa Calm     86 % 0 in /  0.0 mm
00:38 61.3 °F /  16.3 °C 57 °F /  13.9 °C 30.2 in /  1023.9 hPa Calm     86 % 0 in /  0.0 mm
00:40 56.3 °F /  13.5 °C 49.3 °F /  9.6 °C 30.2 in /  1023.9 hPa NW 2 mph /  3.2 km/h 4 mph /  6.4 km/h 77 % 0 in /  0.0 mm
00:43 61.5 °F /  16.4 °C 57.6 °F /  14.2 °C 30.2 in /  1023.9 hPa Calm     87 % 0 in /  0.0 mm
00:50 56.1 °F /  13.4 °C 48.9 °F /  9.4 °C 30.2 in /  1023.9 hPa NNW 1 mph /  1.6 km/h 3 mph /  4.8 km/h 77 % 0 in /  0.0 mm
01:00 56.3 °F /  13.5 °C 49.3 °F /  9.6 °C 30.2 in /  1023.9 hPa NNE 1 mph /  1.6 km/h 2 mph /  3.2 km/h 77 % 0 in /  0.0 mm
01:10 55.9 °F /  13.3 °C 48.7 °F /  9.3 °C 30.2 in /  1023.9 hPa NNW 1 mph /  1.6 km/h 2 mph /  3.2 km/h 77 % 0 in /  0.0 mm
01:20 55.6 °F /  13.1 °C 48.6 °F /  9.2 °C 30.2 in /  1023.9 hPa WSW 2 mph /  3.2 km/h 2 mph /  3.2 km/h 77 % 0 in /  0.0 mm
01:30 55.6 °F /  13.1 °C 48.6 °F /  9.2 °C 30.2 in /  1023.9 hPa WSW 1 mph /  1.6 km/h 2 mph /  3.2 km/h 77 % 0 in /  0.0 mm
01:40 55.4 °F /  13.0 °C 48.7 °F /  9.3 °C 30.2 in /  1023.9 hPa WNW 1 mph /  1.6 km/h 4 mph /  6.4 km/h 78 % 0 in /  0.0 mm
01:50 55.6 °F /  13.1 °C 48.6 °F /  9.2 °C 30.2 in /  1023.9 hPa NNE 1 mph /  1.6 km/h 3 mph /  4.8 km/h 77 % 0 in /  0.0 mm
02:00 55.6 °F /  13.1 °C 48.6 °F /  9.2 °C 30.2 in /  1023.9 hPa NNE 1 mph /  1.6 km/h 2 mph /  3.2 km/h 77 % 0 in /  0.0 mm
02:10 55.4 °F /  13.0 °C 48.4 °F /  9.1 °C 30.2 in /  1023.9 hPa North 1 mph /  1.6 km/h 2 mph /  3.2 km/h 77 % 0 in /  0.0 mm
02:20 54.9 °F /  12.7 °C 48 °F /  8.9 °C 30.3 in /  1024.9 hPa North 1 mph /  1.6 km/h 2 mph /  3.2 km/h 78 % 0 in /  0.0 mm
02:30 54.5 °F /  12.5 °C 47.8 °F /  8.8 °C 30.2 in /  1023.9 hPa NE 2 mph /  3.2 km/h 2 mph /  3.2 km/h 78 % 0 in /  0.0 mm
02:40 54.3 °F /  12.4 °C 47.7 °F /  8.7 °C 30.2 in /  1023.9 hPa NNE 1 mph /  1.6 km/h 3 mph /  4.8 km/h 78 % 0 in /  0.0 mm
02:50 54.1 °F /  12.3 °C 47.5 °F /  8.6 °C 30.2 in /  1023.9 hPa North 1 mph /  1.6 km/h 2 mph /  3.2 km/h 78 % 0 in /  0.0 mm
03:00 53.8 °F /  12.1 °C 47.5 °F /  8.6 °C 30.3 in /  1024.9 hPa NNE 1 mph /  1.6 km/h 3 mph /  4.8 km/h 79 % 0 in /  0.0 mm
03:10 53.6 °F /  12.0 °C 47.1 °F /  8.4 °C 30.3 in /  1024.9 hPa North 1 mph /  1.6 km/h 1 mph /  1.6 km/h 79 % 0 in /  0.0 mm
03:20 53.4 °F /  11.9 °C 47.1 °F /  8.4 °C 30.3 in /  1024.9 hPa Calm   1 mph /  1.6 km/h 79 % 0 in /  0.0 mm
03:30 53.4 °F /  11.9 °C 47.5 °F /  8.6 °C 30.3 in /  1026.0 hPa Calm   2 mph /  3.2 km/h 80 % 0 in /  0.0 mm
03:40 53.4 °F /  11.9 °C 47.1 °F /  8.4 °C 30.3 in /  1026.0 hPa North 1 mph /  1.6 km/h 2 mph /  3.2 km/h 79 % 0 in /  0.0 mm
03:50 53.8 °F /  12.1 °C 47.5 °F /  8.6 °C 30.3 in /  1026.0 hPa NNW 2 mph /  3.2 km/h 3 mph /  4.8 km/h 79 % 0 in /  0.0 mm
04:00 53.6 °F /  12.0 °C 47.7 °F /  8.7 °C 30.3 in /  1026.0 hPa Calm   2 mph /  3.2 km/h 80 % 0 in /  0.0 mm
04:10 54.5 °F /  12.5 °C 48 °F /  8.9 °C 30.3 in /  1026.0 hPa WNW 2 mph /  3.2 km/h 2 mph /  3.2 km/h 79 % 0 in /  0.0 mm
04:20 54.7 °F /  12.6 °C 48.4 °F /  9.1 °C 30.3 in /  1026.0 hPa WNW 1 mph /  1.6 km/h 2 mph /  3.2 km/h 79 % 0 in /  0.0 mm
04:30 55.8 °F /  13.2 °C 49.3 °F /  9.6 °C 30.3 in /  1026.0 hPa West 1 mph /  1.6 km/h 2 mph /  3.2 km/h 79 % 0 in /  0.0 mm
04:40 57 °F /  13.9 °C 50.2 °F /  10.1 °C 30.3 in /  1026.0 hPa NNW 2 mph /  3.2 km/h 4 mph /  6.4 km/h 78 % 0 in /  0.0 mm
04:50 58.1 °F /  14.5 °C 50.9 °F /  10.5 °C 30.3 in /  1026.0 hPa NNE 1 mph /  1.6 km/h 3 mph /  4.8 km/h 77 % 0 in /  0.0 mm
05:00 57.7 °F /  14.3 °C 50.2 °F /  10.1 °C 30.3 in /  1026.0 hPa NNE 3 mph /  4.8 km/h 3 mph /  4.8 km/h 76 % 0 in /  0.0 mm
05:10 57.7 °F /  14.3 °C 50.2 °F /  10.1 °C 30.3 in /  1026.0 hPa NNE 2 mph /  3.2 km/h 4 mph /  6.4 km/h 76 % 0 in /  0.0 mm
05:20 58.8 °F /  14.9 °C 51.3 °F /  10.7 °C 30.3 in /  1024.9 hPa NE 2 mph /  3.2 km/h 3 mph /  4.8 km/h 76 % 0 in /  0.0 mm
05:30 59 °F /  15.0 °C 51.1 °F /  10.6 °C 30.3 in /  1024.9 hPa NNE 2 mph /  3.2 km/h 4 mph /  6.4 km/h 75 % 0 in /  0.0 mm
10:36 59.4 °F /  15.2 °C 51.1 °F /  10.6 °C 30.3 in /  1024.9 hPa North 4.6 mph /  7.4 km/h 4.6 mph /  7.4 km/h 74 % 0 in /  0.0 mm
10:37 59.4 °F /  15.2 °C 51.1 °F /  10.6 °C 30.3 in /  1024.9 hPa North 4.6 mph /  7.4 km/h 4.6 mph /  7.4 km/h 74 % 0 in /  0.0 mm
10:38 59.5 °F /  15.3 °C 51.3 °F /  10.7 °C 30.3 in /  1024.9 hPa NNE 2.3 mph /  3.7 km/h 2.3 mph /  3.7 km/h 74 % 0 in /  0.0 mm
10:43 60.4 °F /  15.8 °C 52.2 °F /  11.2 °C 30.3 in /  1026.0 hPa ENE 2.3 mph /  3.7 km/h 2.3 mph /  3.7 km/h 74 % 0 in /  0.0 mm
10:48 60.4 °F /  15.8 °C 51.6 °F /  10.9 °C 30.3 in /  1026.0 hPa NE 3.8 mph /  6.1 km/h 3.8 mph /  6.1 km/h 73 % 0 in /  0.0 mm
10:53 60.4 °F /  15.8 °C 51.6 °F /  10.9 °C 30.3 in /  1026.0 hPa NE 3.5 mph /  5.6 km/h 3.5 mph /  5.6 km/h 73 % 0 in /  0.0 mm
10:58 61.2 °F /  16.2 °C 52.2 °F /  11.2 °C 30.3 in /  1024.9 hPa NNE 5.6 mph /  9.0 km/h 5.6 mph /  9.0 km/h 72 % 0 in /  0.0 mm
11:03 60.4 °F /  15.8 °C 51.1 °F /  10.6 °C 30.3 in /  1024.9 hPa NNE 4.6 mph /  7.4 km/h 4.6 mph /  7.4 km/h 71 % 0 in /  0.0 mm
11:08 61 °F /  16.1 °C 52 °F /  11.1 °C 30.3 in /  1024.9 hPa NE 3.5 mph /  5.6 km/h 3.5 mph /  5.6 km/h 72 % 0 in /  0.0 mm
11:13 61.2 °F /  16.2 °C 52.2 °F /  11.2 °C 30.3 in /  1026.0 hPa ENE 4.5 mph /  7.2 km/h 4.5 mph /  7.2 km/h 72 % 0 in /  0.0 mm
11:14 61.3 °F /  16.3 °C 52 °F /  11.1 °C 30.3 in /  1026.0 hPa NE 4.6 mph /  7.4 km/h 4.6 mph /  7.4 km/h 71 % 0 in /  0.0 mm
11:19 61.5 °F /  16.4 °C 52 °F /  11.1 °C 30.3 in /  1026.0 hPa ENE 5.8 mph /  9.3 km/h 5.8 mph /  9.3 km/h 71 % 0 in /  0.0 mm
11:24 61.5 °F /  16.4 °C 51.6 °F /  10.9 °C 30.3 in /  1026.0 hPa ENE 5.8 mph /  9.3 km/h 5.8 mph /  9.3 km/h 70 % 0 in /  0.0 mm
11:29 61.5 °F /  16.4 °C 51.6 °F /  10.9 °C 30.3 in /  1026.0 hPa NNE 6.4 mph /  10.3 km/h 6.4 mph /  10.3 km/h 70 % 0 in /  0.0 mm
11:34 61.3 °F /  16.3 °C 51.4 °F /  10.8 °C 30.3 in /  1026.0 hPa ENE 5.8 mph /  9.3 km/h 5.8 mph /  9.3 km/h 70 % 0 in /  0.0 mm
11:39 61.7 °F /  16.5 °C 51.8 °F /  11.0 °C 30.3 in /  1026.0 hPa ENE 3.5 mph /  5.6 km/h 3.5 mph /  5.6 km/h 70 % 0 in /  0.0 mm
11:44 61.9 °F /  16.6 °C 52 °F /  11.1 °C 30.3 in /  1026.0 hPa East 5.8 mph /  9.3 km/h 5.8 mph /  9.3 km/h 70 % 0 in /  0.0 mm
11:49 62.1 °F /  16.7 °C 51.8 °F /  11.0 °C 30.3 in /  1026.0 hPa NNE 4.6 mph /  7.4 km/h 4.6 mph /  7.4 km/h 69 % 0 in /  0.0 mm
11:54 62.8 °F /  17.1 °C 52.5 °F /  11.4 °C 30.3 in /  1026.0 hPa North 3.5 mph /  5.6 km/h 3.5 mph /  5.6 km/h 69 % 0 in /  0.0 mm
11:59 63.1 °F /  17.3 °C 52.3 °F /  11.3 °C 30.3 in /  1026.0 hPa NNE 3.8 mph /  6.1 km/h 3.8 mph /  6.1 km/h 68 % 0 in /  0.0 mm
12:09 63 °F /  17.2 °C 51.8 °F /  11.0 °C 30.3 in /  1026.0 hPa North 4.6 mph /  7.4 km/h 4.6 mph /  7.4 km/h 67 % 0 in /  0.0 mm
12:14 63.3 °F /  17.4 °C 52.2 °F /  11.2 °C 30.3 in /  1026.0 hPa NNE 4.6 mph /  7.4 km/h 4.6 mph /  7.4 km/h 67 % 0 in /  0.0 mm
12:19 63.3 °F /  17.4 °C 52.2 °F /  11.2 °C 30.3 in /  1026.0 hPa NNE 6.9 mph /  11.1 km/h 6.9 mph /  11.1 km/h 67 % 0 in /  0.0 mm
12:24 63.9 °F /  17.7 °C 52.7 °F /  11.5 °C 30.3 in /  1026.0 hPa NNW 3.1 mph /  5.0 km/h 3.1 mph /  5.0 km/h 67 % 0 in /  0.0 mm
12:29 64 °F /  17.8 °C 52.9 °F /  11.6 °C 30.3 in /  1026.0 hPa NE 4.6 mph /  7.4 km/h 4.6 mph /  7.4 km/h 67 % 0 in /  0.0 mm
12:34 64 °F /  17.8 °C 52.3 °F /  11.3 °C 30.3 in /  1026.0 hPa ENE 5.8 mph /  9.3 km/h 5.8 mph /  9.3 km/h 66 % 0 in /  0.0 mm
12:39 64 °F /  17.8 °C 52.3 °F /  11.3 °C 30.3 in /  1026.0 hPa NNE 4.6 mph /  7.4 km/h 4.6 mph /  7.4 km/h 66 % 0 in /  0.0 mm
12:44 64.4 °F /  18.0 °C 52.9 °F /  11.6 °C 30.3 in /  1026.0 hPa NNE 4.6 mph /  7.4 km/h 4.6 mph /  7.4 km/h 66 % 0 in /  0.0 mm
12:49 64.6 °F /  18.1 °C 52.5 °F /  11.4 °C 30.3 in /  1026.0 hPa NE 3.5 mph /  5.6 km/h 3.5 mph /  5.6 km/h 65 % 0 in /  0.0 mm
12:54 64.9 °F /  18.3 °C 52.9 °F /  11.6 °C 30.3 in /  1024.9 hPa North 3.5 mph /  5.6 km/h 3.5 mph /  5.6 km/h 65 % 0 in /  0.0 mm
12:59 65.7 °F /  18.7 °C 53.6 °F /  12.0 °C 30.3 in /  1024.9 hPa ENE 4.6 mph /  7.4 km/h 4.6 mph /  7.4 km/h 65 % 0 in /  0.0 mm
13:04 65.3 °F /  18.5 °C 52.9 °F /  11.6 °C 30.3 in /  1024.9 hPa NNE 4.6 mph /  7.4 km/h 4.6 mph /  7.4 km/h 64 % 0 in /  0.0 mm
13:09 65.5 °F /  18.6 °C 53.1 °F /  11.7 °C 30.3 in /  1024.9 hPa ENE 4.6 mph /  7.4 km/h 4.6 mph /  7.4 km/h 64 % 0 in /  0.0 mm
13:10 65.5 °F /  18.6 °C 53.1 °F /  11.7 °C 30.3 in /  1024.9 hPa ENE 4.6 mph /  7.4 km/h 4.6 mph /  7.4 km/h 64 % 0 in /  0.0 mm
13:15 66.2 °F /  19.0 °C 53.2 °F /  11.8 °C 30.3 in /  1024.9 hPa ENE 4.6 mph /  7.4 km/h 4.6 mph /  7.4 km/h 63 % 0 in /  0.0 mm
13:20 66.6 °F /  19.2 °C 53.6 °F /  12.0 °C 30.3 in /  1024.9 hPa North 3.5 mph /  5.6 km/h 3.5 mph /  5.6 km/h 63 % 0 in /  0.0 mm
13:25 66.4 °F /  19.1 °C 53.1 °F /  11.7 °C 30.3 in /  1024.9 hPa NE 4.6 mph /  7.4 km/h 4.6 mph /  7.4 km/h 62 % 0 in /  0.0 mm
13:30 66.6 °F /  19.2 °C 52.7 °F /  11.5 °C 30.3 in /  1024.9 hPa NE 2.6 mph /  4.2 km/h 2.6 mph /  4.2 km/h 61 % 0 in /  0.0 mm
13:35 66.7 °F /  19.3 °C 52.9 °F /  11.6 °C 30.3 in /  1024.9 hPa NE 4.6 mph /  7.4 km/h 4.6 mph /  7.4 km/h 61 % 0 in /  0.0 mm
13:40 67.1 °F /  19.5 °C 53.6 °F /  12.0 °C 30.2 in /  1023.9 hPa NNE 3.5 mph /  5.6 km/h 3.5 mph /  5.6 km/h 62 % 0 in /  0.0 mm
13:45 67.1 °F /  19.5 °C 53.2 °F /  11.8 °C 30.2 in /  1023.9 hPa NE 3.5 mph /  5.6 km/h 3.5 mph /  5.6 km/h 61 % 0 in /  0.0 mm
13:50 67.3 °F /  19.6 °C 52.9 °F /  11.6 °C 30.2 in /  1023.9 hPa ENE 2.9 mph /  4.7 km/h 2.9 mph /  4.7 km/h 60 % 0 in /  0.0 mm
13:55 67.5 °F /  19.7 °C 53.4 °F /  11.9 °C 30.2 in /  1023.9 hPa NNE 2.9 mph /  4.7 km/h 2.9 mph /  4.7 km/h 61 % 0 in /  0.0 mm
14:00 67.8 °F /  19.9 °C 54 °F /  12.2 °C 30.2 in /  1023.9 hPa NNE 4.6 mph /  7.4 km/h 4.6 mph /  7.4 km/h 61 % 0 in /  0.0 mm
14:05 68.2 °F /  20.1 °C 53.8 °F /  12.1 °C 30.2 in /  1023.9 hPa NNE 2 mph /  3.2 km/h 2 mph /  3.2 km/h 60 % 0 in /  0.0 mm
14:10 67.8 °F /  19.9 °C 53.4 °F /  11.9 °C 30.2 in /  1023.9 hPa ESE 2.3 mph /  3.7 km/h 2.3 mph /  3.7 km/h 60 % 0 in /  0.0 mm
14:15 68.2 °F /  20.1 °C 52.3 °F /  11.3 °C 30.2 in /  1023.9 hPa NE 3.5 mph /  5.6 km/h 3.5 mph /  5.6 km/h 57 % 0 in /  0.0 mm
14:20 68.4 °F /  20.2 °C 52.5 °F /  11.4 °C 30.2 in /  1023.9 hPa ESE 3.5 mph /  5.6 km/h 3.8 mph /  6.1 km/h 57 % 0 in /  0.0 mm
14:25 68.7 °F /  20.4 °C 52.9 °F /  11.6 °C 30.2 in /  1023.9 hPa SSE 3.5 mph /  5.6 km/h 3.5 mph /  5.6 km/h 57 % 0 in /  0.0 mm
14:30 69.3 °F /  20.7 °C 53.4 °F /  11.9 °C 30.2 in /  1023.9 hPa NNW 2.2 mph /  3.5 km/h 2.2 mph /  3.5 km/h 57 % 0 in /  0.0 mm
14:35 69.3 °F /  20.7 °C 53.4 °F /  11.9 °C 30.2 in /  1023.9 hPa NNE 1.6 mph /  2.6 km/h   57 % 0 in /  0.0 mm
14:40 69.4 °F /  20.8 °C 53.4 °F /  11.9 °C 30.2 in /  1023.9 hPa West 1.4 mph /  2.3 km/h 1.4 mph /  2.3 km/h 57 % 0 in /  0.0 mm
14:45 69.6 °F /  20.9 °C 54.1 °F /  12.3 °C 30.2 in /  1023.9 hPa NW 3.5 mph /  5.6 km/h 3.5 mph /  5.6 km/h 58 % 0 in /  0.0 mm
14:50 69.8 °F /  21.0 °C 52.9 °F /  11.6 °C 30.2 in /  1023.9 hPa WSW 2.3 mph /  3.7 km/h 2.3 mph /  3.7 km/h 55 % 0 in /  0.0 mm
14:55 70.2 °F /  21.2 °C 53.8 °F /  12.1 °C 30.2 in /  1022.9 hPa SW 1.2 mph /  1.9 km/h   56 % 0 in /  0.0 mm
15:00 70.9 °F /  21.6 °C 54 °F /  12.2 °C 30.2 in /  1022.9 hPa South 4.9 mph /  7.9 km/h 4.9 mph /  7.9 km/h 55 % 0 in /  0.0 mm
15:05 70.7 °F /  21.5 °C 52.7 °F /  11.5 °C 30.2 in /  1022.9 hPa South 2.3 mph /  3.7 km/h 2.3 mph /  3.7 km/h 53 % 0 in /  0.0 mm
15:10 71.1 °F /  21.7 °C 54.1 °F /  12.3 °C 30.2 in /  1022.9 hPa South 5.8 mph /  9.3 km/h 5.8 mph /  9.3 km/h 55 % 0 in /  0.0 mm
15:15 71.4 °F /  21.9 °C 52.9 °F /  11.6 °C 30.2 in /  1022.9 hPa SSE 5.8 mph /  9.3 km/h 5.8 mph /  9.3 km/h 52 % 0 in /  0.0 mm
15:20 70.7 °F /  21.5 °C 52.2 °F /  11.2 °C 30.2 in /  1022.9 hPa SW 2.3 mph /  3.7 km/h 2.3 mph /  3.7 km/h 52 % 0 in /  0.0 mm
15:25 71.4 °F /  21.9 °C 53.4 °F /  11.9 °C 30.2 in /  1022.9 hPa ESE 3.5 mph /  5.6 km/h 3.5 mph /  5.6 km/h 53 % 0 in /  0.0 mm
15:30 72 °F /  22.2 °C 54 °F /  12.2 °C 30.2 in /  1022.9 hPa West 3.5 mph /  5.6 km/h 3.5 mph /  5.6 km/h 53 % 0 in /  0.0 mm
15:35 71.6 °F /  22.0 °C 53.1 °F /  11.7 °C 30.2 in /  1022.9 hPa East 2.4 mph /  3.9 km/h 2.4 mph /  3.9 km/h 52 % 0 in /  0.0 mm
15:40 71.8 °F /  22.1 °C 53.8 °F /  12.1 °C 30.2 in /  1022.9 hPa South 2.3 mph /  3.7 km/h 2.3 mph /  3.7 km/h 53 % 0 in /  0.0 mm
15:45 72 °F /  22.2 °C 54 °F /  12.2 °C 30.2 in /  1022.9 hPa SW 3.5 mph /  5.6 km/h 3.5 mph /  5.6 km/h 53 % 0 in /  0.0 mm
15:50 72 °F /  22.2 °C 53.4 °F /  11.9 °C 30.2 in /  1022.9 hPa ESE 3.5 mph /  5.6 km/h 3.5 mph /  5.6 km/h 52 % 0 in /  0.0 mm
15:55 72.1 °F /  22.3 °C 53.4 °F /  11.9 °C 30.2 in /  1022.9 hPa SW 3.8 mph /  6.1 km/h 3.8 mph /  6.1 km/h 52 % 0 in /  0.0 mm
16:00 72.3 °F /  22.4 °C 53.8 °F /  12.1 °C 30.2 in /  1022.9 hPa WSW 2.6 mph /  4.2 km/h 2.6 mph /  4.2 km/h 52 % 0 in /  0.0 mm
16:05 71.4 °F /  21.9 °C 51.8 °F /  11.0 °C 30.2 in /  1022.9 hPa ESE 3.5 mph /  5.6 km/h 3.5 mph /  5.6 km/h 50 % 0 in /  0.0 mm
16:10 71.1 °F /  21.7 °C 52 °F /  11.1 °C 30.2 in /  1022.9 hPa ENE 3.5 mph /  5.6 km/h 3.5 mph /  5.6 km/h 51 % 0 in /  0.0 mm
16:15 71.2 °F /  21.8 °C 52.2 °F /  11.2 °C 30.2 in /  1022.9 hPa ESE 5.9 mph /  9.5 km/h 5.9 mph /  9.5 km/h 51 % 0 in /  0.0 mm
16:20 71.2 °F /  21.8 °C 52.2 °F /  11.2 °C 30.2 in /  1022.9 hPa NE 1.2 mph /  1.9 km/h 1.2 mph /  1.9 km/h 51 % 0 in /  0.0 mm
16:25 72.5 °F /  22.5 °C 53.2 °F /  11.8 °C 30.2 in /  1022.9 hPa South 4 mph /  6.4 km/h   51 % 0 in /  0.0 mm
16:30 72.9 °F /  22.7 °C 54.1 °F /  12.3 °C 30.2 in /  1022.9 hPa SW 3.5 mph /  5.6 km/h 3.5 mph /  5.6 km/h 52 % 0 in /  0.0 mm
16:35 73 °F /  22.8 °C 53.8 °F /  12.1 °C 30.2 in /  1022.9 hPa SSE 2.3 mph /  3.7 km/h   51 % 0 in /  0.0 mm
16:40 72.1 °F /  22.3 °C 52.5 °F /  11.4 °C 30.2 in /  1021.9 hPa East 2.3 mph /  3.7 km/h 2.3 mph /  3.7 km/h 50 % 0 in /  0.0 mm
16:45 71.6 °F /  22.0 °C 52 °F /  11.1 °C 30.2 in /  1021.9 hPa SE 3.5 mph /  5.6 km/h 3.5 mph /  5.6 km/h 50 % 0 in /  0.0 mm
16:50 72 °F /  22.2 °C 53.4 °F /  11.9 °C 30.2 in /  1021.9 hPa WSW 3.5 mph /  5.6 km/h 3.5 mph /  5.6 km/h 52 % 0 in /  0.0 mm
16:55 72.7 °F /  22.6 °C 53.4 °F /  11.9 °C 30.2 in /  1021.9 hPa SSW 3.5 mph /  5.6 km/h 3.5 mph /  5.6 km/h 51 % 0 in /  0.0 mm
17:00 73.2 °F /  22.9 °C 54.5 °F /  12.5 °C 30.2 in /  1021.9 hPa SSE 2.9 mph /  4.7 km/h 2.9 mph /  4.7 km/h 52 % 0 in /  0.0 mm
17:05 72 °F /  22.2 °C 52.3 °F /  11.3 °C 30.2 in /  1021.9 hPa ESE 3.5 mph /  5.6 km/h 3.5 mph /  5.6 km/h 50 % 0 in /  0.0 mm
17:10 71.2 °F /  21.8 °C 52.2 °F /  11.2 °C 30.2 in /  1021.9 hPa East 5.8 mph /  9.3 km/h 5.8 mph /  9.3 km/h 51 % 0 in /  0.0 mm
17:15 70.9 °F /  21.6 °C 52.3 °F /  11.3 °C 30.2 in /  1021.9 hPa East 5.8 mph /  9.3 km/h 5.8 mph /  9.3 km/h 52 % 0 in /  0.0 mm
17:20 70.3 °F /  21.3 °C 52.3 °F /  11.3 °C 30.2 in /  1021.9 hPa ESE 4.6 mph /  7.4 km/h 4.6 mph /  7.4 km/h 53 % 0 in /  0.0 mm
17:25 70.2 °F /  21.2 °C 52.2 °F /  11.2 °C 30.2 in /  1021.9 hPa ESE 5.8 mph /  9.3 km/h 5.8 mph /  9.3 km/h 53 % 0 in /  0.0 mm
17:30 70.3 °F /  21.3 °C 53.4 °F /  11.9 °C 30.2 in /  1021.9 hPa SSW 3.5 mph /  5.6 km/h 3.5 mph /  5.6 km/h 55 % 0 in /  0.0 mm
17:35 70.2 °F /  21.2 °C 53.8 °F /  12.1 °C 30.2 in /  1021.9 hPa ESE 3.5 mph /  5.6 km/h 3.5 mph /  5.6 km/h 56 % 0 in /  0.0 mm
17:40 70.2 °F /  21.2 °C 52.7 °F /  11.5 °C 30.2 in /  1021.9 hPa ESE 6.9 mph /  11.1 km/h 6.9 mph /  11.1 km/h 54 % 0 in /  0.0 mm
17:45 70.9 °F /  21.6 °C 53.4 °F /  11.9 °C 30.2 in /  1021.9 hPa SW 4.6 mph /  7.4 km/h 4.6 mph /  7.4 km/h 54 % 0 in /  0.0 mm
17:50 70.7 °F /  21.5 °C 52.7 °F /  11.5 °C 30.2 in /  1021.9 hPa South 8.1 mph /  13.0 km/h 8.1 mph /  13.0 km/h 53 % 0 in /  0.0 mm
17:55 70.5 °F /  21.4 °C 52.5 °F /  11.4 °C 30.2 in /  1022.9 hPa SW 4.9 mph /  7.9 km/h 4.9 mph /  7.9 km/h 53 % 0 in /  0.0 mm
18:00 70.5 °F /  21.4 °C 52.5 °F /  11.4 °C 30.2 in /  1022.9 hPa SW 3.5 mph /  5.6 km/h 3.5 mph /  5.6 km/h 53 % 0 in /  0.0 mm
18:05 70.3 °F /  21.3 °C 52.3 °F /  11.3 °C 30.2 in /  1022.9 hPa WSW 2.3 mph /  3.7 km/h 2.3 mph /  3.7 km/h 53 % 0 in /  0.0 mm
18:10 70.2 °F /  21.2 °C 52.2 °F /  11.2 °C 30.2 in /  1022.9 hPa WSW 4.6 mph /  7.4 km/h 4.6 mph /  7.4 km/h 53 % 0 in /  0.0 mm
18:15 70 °F /  21.1 °C 52.2 °F /  11.2 °C 30.2 in /  1022.9 hPa WSW 2.4 mph /  3.9 km/h 2.4 mph /  3.9 km/h 53 % 0 in /  0.0 mm
18:20 69.8 °F /  21.0 °C 52 °F /  11.1 °C 30.2 in /  1022.9 hPa WSW 2.3 mph /  3.7 km/h 2.3 mph /  3.7 km/h 53 % 0 in /  0.0 mm
18:25 69.4 °F /  20.8 °C 52.2 °F /  11.2 °C 30.2 in /  1021.9 hPa West 4.6 mph /  7.4 km/h 4.6 mph /  7.4 km/h 54 % 0 in /  0.0 mm
18:30 68.9 °F /  20.5 °C 51.6 °F /  10.9 °C 30.2 in /  1021.9 hPa SW 4.6 mph /  7.4 km/h 4.6 mph /  7.4 km/h 54 % 0 in /  0.0 mm
18:35 68.4 °F /  20.2 °C 51.1 °F /  10.6 °C 30.2 in /  1021.9 hPa SW 2.6 mph /  4.2 km/h 2.6 mph /  4.2 km/h 54 % 0 in /  0.0 mm
18:40 68 °F /  20.0 °C 51.3 °F /  10.7 °C 30.2 in /  1021.9 hPa WSW 2.3 mph /  3.7 km/h 2.4 mph /  3.9 km/h 55 % 0 in /  0.0 mm
18:45 67.5 °F /  19.7 °C 50.7 °F /  10.4 °C 30.2 in /  1021.9 hPa WSW 2.3 mph /  3.7 km/h 2.3 mph /  3.7 km/h 55 % 0 in /  0.0 mm
18:50 66.9 °F /  19.4 °C 50.7 °F /  10.4 °C 30.2 in /  1021.9 hPa SW 2.3 mph /  3.7 km/h 2.3 mph /  3.7 km/h 56 % 0 in /  0.0 mm
18:55 66.6 °F /  19.2 °C 50.4 °F /  10.2 °C 30.2 in /  1021.9 hPa SW 2.6 mph /  4.2 km/h 2.6 mph /  4.2 km/h 56 % 0 in /  0.0 mm
19:00 66 °F /  18.9 °C 50.4 °F /  10.2 °C 30.2 in /  1021.9 hPa West 3.5 mph /  5.6 km/h 3.5 mph /  5.6 km/h 57 % 0 in /  0.0 mm
19:05 65.7 °F /  18.7 °C 50 °F /  10.0 °C 30.2 in /  1021.9 hPa SW 2.4 mph /  3.9 km/h 2.4 mph /  3.9 km/h 57 % 0 in /  0.0 mm
19:10 65.3 °F /  18.5 °C 49.6 °F /  9.8 °C 30.2 in /  1022.9 hPa SW 2.3 mph /  3.7 km/h 2.3 mph /  3.7 km/h 57 % 0 in /  0.0 mm
19:15 65.1 °F /  18.4 °C 49.5 °F /  9.7 °C 30.2 in /  1022.9 hPa WSW 2.3 mph /  3.7 km/h 2.4 mph /  3.9 km/h 57 % 0 in /  0.0 mm
19:20 64.8 °F /  18.2 °C 49.6 °F /  9.8 °C 30.2 in /  1022.9 hPa WSW 3.5 mph /  5.6 km/h 3.5 mph /  5.6 km/h 58 % 0 in /  0.0 mm
19:25 64.6 °F /  18.1 °C 49.5 °F /  9.7 °C 30.2 in /  1022.9 hPa SW 2.4 mph /  3.9 km/h 2.4 mph /  3.9 km/h 58 % 0 in /  0.0 mm
19:30 64.2 °F /  17.9 °C 49.1 °F /  9.5 °C 30.2 in /  1022.9 hPa SW 3.5 mph /  5.6 km/h 3.5 mph /  5.6 km/h 58 % 0 in /  0.0 mm
19:35 64 °F /  17.8 °C 48.9 °F /  9.4 °C 30.2 in /  1022.9 hPa WSW 2.4 mph /  3.9 km/h 2.4 mph /  3.9 km/h 58 % 0 in /  0.0 mm
19:40 63.9 °F /  17.7 °C 49.3 °F /  9.6 °C 30.2 in /  1022.9 hPa SW 2.6 mph /  4.2 km/h 2.6 mph /  4.2 km/h 59 % 0 in /  0.0 mm
19:45 63.9 °F /  17.7 °C 49.3 °F /  9.6 °C 30.2 in /  1022.9 hPa SW 2.6 mph /  4.2 km/h 2.6 mph /  4.2 km/h 59 % 0 in /  0.0 mm
19:50 63.7 °F /  17.6 °C 49.1 °F /  9.5 °C 30.2 in /  1022.9 hPa WSW 2.3 mph /  3.7 km/h 2.3 mph /  3.7 km/h 59 % 0 in /  0.0 mm
19:55 63.5 °F /  17.5 °C 49.5 °F /  9.7 °C 30.2 in /  1022.9 hPa WSW 2.3 mph /  3.7 km/h 2.3 mph /  3.7 km/h 60 % 0 in /  0.0 mm
20:00 63.3 °F /  17.4 °C 49.3 °F /  9.6 °C 30.2 in /  1022.9 hPa West 2.3 mph /  3.7 km/h 2.3 mph /  3.7 km/h 60 % 0 in /  0.0 mm
20:05 63.1 °F /  17.3 °C 48.9 °F /  9.4 °C 30.2 in /  1022.9 hPa WSW 2.3 mph /  3.7 km/h 2.4 mph /  3.9 km/h 60 % 0 in /  0.0 mm
20:10 63.1 °F /  17.3 °C 49.5 °F /  9.7 °C 30.2 in /  1022.9 hPa WSW 2.6 mph /  4.2 km/h 2.6 mph /  4.2 km/h 61 % 0 in /  0.0 mm
20:15 62.8 °F /  17.1 °C 49.1 °F /  9.5 °C 30.2 in /  1022.9 hPa WSW 2.4 mph /  3.9 km/h 2.4 mph /  3.9 km/h 61 % 0 in /  0.0 mm
20:20 62.6 °F /  17.0 °C 48.9 °F /  9.4 °C 30.2 in /  1022.9 hPa SW 3.5 mph /  5.6 km/h 3.5 mph /  5.6 km/h 61 % 0 in /  0.0 mm
20:25 62.6 °F /  17.0 °C 49.5 °F /  9.7 °C 30.2 in /  1022.9 hPa West 2.3 mph /  3.7 km/h 2.3 mph /  3.7 km/h 62 % 0 in /  0.0 mm
20:30 62.6 °F /  17.0 °C 49.5 °F /  9.7 °C 30.2 in /  1022.9 hPa SW 2.3 mph /  3.7 km/h 2.3 mph /  3.7 km/h 62 % 0 in /  0.0 mm
20:35 62.4 °F /  16.9 °C 49.6 °F /  9.8 °C 30.2 in /  1022.9 hPa WSW 2.3 mph /  3.7 km/h 2.3 mph /  3.7 km/h 63 % 0 in /  0.0 mm
20:40 62.2 °F /  16.8 °C 49.8 °F /  9.9 °C 30.2 in /  1022.9 hPa SW 2.9 mph /  4.7 km/h 2.9 mph /  4.7 km/h 64 % 0 in /  0.0 mm
20:45 62.2 °F /  16.8 °C 49.8 °F /  9.9 °C 30.2 in /  1022.9 hPa SW 5.8 mph /  9.3 km/h 5.8 mph /  9.3 km/h 64 % 0 in /  0.0 mm
20:50 62.2 °F /  16.8 °C 50.4 °F /  10.2 °C 30.2 in /  1022.9 hPa SW 2.3 mph /  3.7 km/h 2.3 mph /  3.7 km/h 65 % 0 in /  0.0 mm
20:55 62.1 °F /  16.7 °C 50.2 °F /  10.1 °C 30.2 in /  1022.9 hPa WSW 2.9 mph /  4.7 km/h 2.9 mph /  4.7 km/h 65 % 0 in /  0.0 mm
21:00 61.9 °F /  16.6 °C 50 °F /  10.0 °C 30.2 in /  1022.9 hPa SW 2.4 mph /  3.9 km/h 2.4 mph /  3.9 km/h 65 % 0 in /  0.0 mm
21:05 61.9 °F /  16.6 °C 50.4 °F /  10.2 °C 30.2 in /  1022.9 hPa WSW 2.3 mph /  3.7 km/h 2.3 mph /  3.7 km/h 66 % 0 in /  0.0 mm
21:10 61.7 °F /  16.5 °C 50.2 °F /  10.1 °C 30.2 in /  1022.9 hPa WSW 2.4 mph /  3.9 km/h 2.4 mph /  3.9 km/h 66 % 0 in /  0.0 mm
21:15 61.7 °F /  16.5 °C 50.5 °F /  10.3 °C 30.2 in /  1022.9 hPa West 2.3 mph /  3.7 km/h 2.3 mph /  3.7 km/h 67 % 0 in /  0.0 mm
21:20 61.7 °F /  16.5 °C 50.5 °F /  10.3 °C 30.2 in /  1022.9 hPa WSW 2.4 mph /  3.9 km/h 2.4 mph /  3.9 km/h 67 % 0 in /  0.0 mm
21:25 61.7 °F /  16.5 °C 50.5 °F /  10.3 °C 30.2 in /  1021.9 hPa WSW 2.3 mph /  3.7 km/h 2.3 mph /  3.7 km/h 67 % 0 in /  0.0 mm
21:30 61.5 °F /  16.4 °C 50.9 °F /  10.5 °C 30.2 in /  1021.9 hPa WSW 1.2 mph /  1.9 km/h 1.4 mph /  2.3 km/h 68 % 0 in /  0.0 mm
21:35 61.3 °F /  16.3 °C 50.7 °F /  10.4 °C 30.2 in /  1021.9 hPa SW 2.3 mph /  3.7 km/h 2.3 mph /  3.7 km/h 68 % 0 in /  0.0 mm
21:40 61.2 °F /  16.2 °C 50.5 °F /  10.3 °C 30.2 in /  1022.9 hPa SW 2.3 mph /  3.7 km/h 2.3 mph /  3.7 km/h 68 % 0 in /  0.0 mm
21:45 60.8 °F /  16.0 °C 50.5 °F /  10.3 °C 30.2 in /  1022.9 hPa SW 2.3 mph /  3.7 km/h 2.3 mph /  3.7 km/h 69 % 0 in /  0.0 mm
21:50 60.8 °F /  16.0 °C 50.5 °F /  10.3 °C 30.2 in /  1022.9 hPa SW 2.3 mph /  3.7 km/h 2.3 mph /  3.7 km/h 69 % 0 in /  0.0 mm
21:55 60.6 °F /  15.9 °C 50.4 °F /  10.2 °C 30.2 in /  1021.9 hPa SW 2.3 mph /  3.7 km/h 2.3 mph /  3.7 km/h 69 % 0 in /  0.0 mm
22:00 60.6 °F /  15.9 °C 50.4 °F /  10.2 °C 30.2 in /  1021.9 hPa SW 2.3 mph /  3.7 km/h 2.3 mph /  3.7 km/h 69 % 0 in /  0.0 mm
22:05 60.4 °F /  15.8 °C 50.2 °F /  10.1 °C 30.2 in /  1021.9 hPa SW 2.3 mph /  3.7 km/h 2.3 mph /  3.7 km/h 69 % 0 in /  0.0 mm
22:10 60.3 °F /  15.7 °C 50 °F /  10.0 °C 30.2 in /  1022.9 hPa WSW 2.3 mph /  3.7 km/h 2.3 mph /  3.7 km/h 69 % 0 in /  0.0 mm
22:15 60.1 °F /  15.6 °C 49.8 °F /  9.9 °C 30.2 in /  1022.9 hPa WSW 2.3 mph /  3.7 km/h 2.3 mph /  3.7 km/h 69 % 0 in /  0.0 mm
22:20 59.9 °F /  15.5 °C 50.2 °F /  10.1 °C 30.2 in /  1022.9 hPa Calm     70 % 0 in /  0.0 mm
22:25 59.7 °F /  15.4 °C 49.8 °F /  9.9 °C 30.2 in /  1022.9 hPa SW 2.3 mph /  3.7 km/h 2.3 mph /  3.7 km/h 70 % 0 in /  0.0 mm
22:30 59.4 °F /  15.2 °C 49.6 °F /  9.8 °C 30.2 in /  1022.9 hPa WSW 2.3 mph /  3.7 km/h 2.3 mph /  3.7 km/h 70 % 0 in /  0.0 mm
22:35 59 °F /  15.0 °C 49.3 °F /  9.6 °C 30.2 in /  1022.9 hPa WSW 1.6 mph /  2.6 km/h 1.6 mph /  2.6 km/h 70 % 0 in /  0.0 mm
22:40 59.2 °F /  15.1 °C 49.5 °F /  9.7 °C 30.2 in /  1021.9 hPa WSW 1.2 mph /  1.9 km/h 1.2 mph /  1.9 km/h 70 % 0 in /  0.0 mm
22:45 59.4 °F /  15.2 °C 49.6 °F /  9.8 °C 30.2 in /  1021.9 hPa WSW 2.3 mph /  3.7 km/h 2.3 mph /  3.7 km/h 70 % 0 in /  0.0 mm
22:50 59.5 °F /  15.3 °C 49.6 °F /  9.8 °C 30.2 in /  1021.9 hPa West 2.3 mph /  3.7 km/h 2.3 mph /  3.7 km/h 70 % 0 in /  0.0 mm
22:55 59.7 °F /  15.4 °C 49.8 °F /  9.9 °C 30.2 in /  1020.9 hPa WSW 1.2 mph /  1.9 km/h 1.2 mph /  1.9 km/h 70 % 0 in /  0.0 mm
23:00 59.5 °F /  15.3 °C 49.6 °F /  9.8 °C 30.2 in /  1020.9 hPa Calm     70 % 0 in /  0.0 mm
23:05 59.5 °F /  15.3 °C 49.5 °F /  9.7 °C 30.2 in /  1020.9 hPa West 4.6 mph /  7.4 km/h 4.6 mph /  7.4 km/h 69 % 0 in /  0.0 mm
23:10 59.5 °F /  15.3 °C 48.9 °F /  9.4 °C 30.2 in /  1021.9 hPa WSW 2.6 mph /  4.2 km/h 2.6 mph /  4.2 km/h 68 % 0 in /  0.0 mm
23:15 59 °F /  15.0 °C 48.4 °F /  9.1 °C 30.2 in /  1021.9 hPa SSW 2.3 mph /  3.7 km/h 2.3 mph /  3.7 km/h 68 % 0 in /  0.0 mm
23:20 58.6 °F /  14.8 °C 48 °F /  8.9 °C 30.2 in /  1021.9 hPa SW 2.3 mph /  3.7 km/h 2.3 mph /  3.7 km/h 68 % 0 in /  0.0 mm
23:25 58.3 °F /  14.6 °C 47.8 °F /  8.8 °C 30.2 in /  1021.9 hPa SW 2.3 mph /  3.7 km/h 2.3 mph /  3.7 km/h 68 % 0 in /  0.0 mm
23:30 58.1 °F /  14.5 °C 47.7 °F /  8.7 °C 30.2 in /  1021.9 hPa SW 1.4 mph /  2.3 km/h 1.4 mph /  2.3 km/h 68 % 0 in /  0.0 mm
23:35 57.9 °F /  14.4 °C 47.5 °F /  8.6 °C 30.2 in /  1021.9 hPa SW 2.2 mph /  3.5 km/h 2.2 mph /  3.5 km/h 68 % 0 in /  0.0 mm
23:40 57.7 °F /  14.3 °C 47.1 °F /  8.4 °C 30.2 in /  1021.9 hPa WSW 1.2 mph /  1.9 km/h 1.2 mph /  1.9 km/h 68 % 0 in /  0.0 mm
23:45 57.6 °F /  14.2 °C 47.1 °F /  8.4 °C 30.2 in /  1021.9 hPa Calm     68 % 0 in /  0.0 mm
23:50 57.2 °F /  14.0 °C 47.1 °F /  8.4 °C 30.2 in /  1021.9 hPa ENE 1.2 mph /  1.9 km/h 1.2 mph /  1.9 km/h 69 % 0 in /  0.0 mm
23:55 57 °F /  13.9 °C 47.3 °F /  8.5 °C 30.2 in /  1021.9 hPa ENE 2.3 mph /  3.7 km/h 2.3 mph /  3.7 km/h 70 % 0 in /  0.0 mm
Meteo Sesrovires
Elogis d' Weather Underground - 3.5 mb

Guio original per  Jim McMurry - jmcmurry@mwt.net Adaptat per a la plantilla per  Wim van der Kuil - Leuven-Template.eu

Trobareu la nostra informacio del temps tambe a:

Weather Underground

AWEKAS